sensor_id;sensor_type;location;lat;lon;timestamp;P1;durP1;ratioP1;P2;durP2;ratioP2
63434;SDS011;68814;50.872;5.306;2023-07-02T00:01:12;25.30;;;11.48;;
63434;SDS011;68814;50.872;5.306;2023-07-02T00:03:38;23.92;;;11.15;;
63434;SDS011;68814;50.872;5.306;2023-07-02T00:06:04;26.75;;;11.52;;
63434;SDS011;68814;50.872;5.306;2023-07-02T00:08:30;29.95;;;12.38;;
63434;SDS011;68814;50.872;5.306;2023-07-02T00:10:55;28.02;;;11.57;;
63434;SDS011;68814;50.872;5.306;2023-07-02T00:13:21;23.33;;;12.50;;
63434;SDS011;68814;50.872;5.306;2023-07-02T00:15:46;33.78;;;12.55;;
63434;SDS011;68814;50.872;5.306;2023-07-02T00:18:12;28.95;;;12.90;;
63434;SDS011;68814;50.872;5.306;2023-07-02T00:20:41;30.33;;;11.57;;
63434;SDS011;68814;50.872;5.306;2023-07-02T00:23:07;27.65;;;13.95;;
63434;SDS011;68814;50.872;5.306;2023-07-02T00:25:34;27.75;;;12.63;;
63434;SDS011;68814;50.872;5.306;2023-07-02T00:28:03;28.33;;;12.45;;
63434;SDS011;68814;50.872;5.306;2023-07-02T00:30:29;30.25;;;12.75;;
63434;SDS011;68814;50.872;5.306;2023-07-02T00:32:55;29.98;;;11.98;;
63434;SDS011;68814;50.872;5.306;2023-07-02T00:35:20;27.15;;;12.25;;
63434;SDS011;68814;50.872;5.306;2023-07-02T00:37:46;31.65;;;13.75;;
63434;SDS011;68814;50.872;5.306;2023-07-02T00:40:12;29.35;;;12.95;;
63434;SDS011;68814;50.872;5.306;2023-07-02T00:42:38;28.95;;;13.75;;
63434;SDS011;68814;50.872;5.306;2023-07-02T00:45:03;28.95;;;12.98;;
63434;SDS011;68814;50.872;5.306;2023-07-02T00:47:30;33.47;;;15.27;;
63434;SDS011;68814;50.872;5.306;2023-07-02T00:49:58;39.58;;;14.18;;
63434;SDS011;68814;50.872;5.306;2023-07-02T00:52:23;34.13;;;14.02;;
63434;SDS011;68814;50.872;5.306;2023-07-02T00:54:51;33.65;;;14.30;;
63434;SDS011;68814;50.872;5.306;2023-07-02T00:57:16;30.35;;;13.93;;
63434;SDS011;68814;50.872;5.306;2023-07-02T00:59:42;34.00;;;14.20;;
63434;SDS011;68814;50.872;5.306;2023-07-02T01:02:08;37.78;;;15.18;;
63434;SDS011;68814;50.872;5.306;2023-07-02T01:04:33;31.23;;;14.25;;
63434;SDS011;68814;50.872;5.306;2023-07-02T01:06:59;35.63;;;14.95;;
63434;SDS011;68814;50.872;5.306;2023-07-02T01:09:25;32.92;;;14.30;;
63434;SDS011;68814;50.872;5.306;2023-07-02T01:11:58;37.50;;;15.32;;
63434;SDS011;68814;50.872;5.306;2023-07-02T01:16:51;35.13;;;16.15;;
63434;SDS011;68814;50.872;5.306;2023-07-02T01:19:19;30.67;;;15.70;;
63434;SDS011;68814;50.872;5.306;2023-07-02T01:22:06;33.85;;;15.80;;
63434;SDS011;68814;50.872;5.306;2023-07-02T01:24:33;37.28;;;15.82;;
63434;SDS011;68814;50.872;5.306;2023-07-02T01:26:59;37.47;;;16.58;;
63434;SDS011;68814;50.872;5.306;2023-07-02T01:29:28;34.95;;;16.13;;
63434;SDS011;68814;50.872;5.306;2023-07-02T01:31:55;37.45;;;16.98;;
63434;SDS011;68814;50.872;5.306;2023-07-02T01:34:21;40.38;;;15.70;;
63434;SDS011;68814;50.872;5.306;2023-07-02T01:36:47;31.95;;;15.43;;
63434;SDS011;68814;50.872;5.306;2023-07-02T01:39:12;36.92;;;16.90;;
63434;SDS011;68814;50.872;5.306;2023-07-02T01:41:42;32.17;;;16.67;;
63434;SDS011;68814;50.872;5.306;2023-07-02T01:44:14;37.70;;;17.77;;
63434;SDS011;68814;50.872;5.306;2023-07-02T01:46:40;35.53;;;17.27;;
63434;SDS011;68814;50.872;5.306;2023-07-02T01:49:06;38.78;;;17.77;;
63434;SDS011;68814;50.872;5.306;2023-07-02T01:51:32;42.65;;;16.75;;
63434;SDS011;68814;50.872;5.306;2023-07-02T01:53:58;39.42;;;18.10;;
63434;SDS011;68814;50.872;5.306;2023-07-02T01:56:25;38.03;;;17.10;;
63434;SDS011;68814;50.872;5.306;2023-07-02T01:58:51;35.72;;;17.63;;
63434;SDS011;68814;50.872;5.306;2023-07-02T02:01:18;37.90;;;18.45;;
63434;SDS011;68814;50.872;5.306;2023-07-02T02:03:43;42.92;;;18.13;;
63434;SDS011;68814;50.872;5.306;2023-07-02T02:06:09;36.47;;;17.75;;
63434;SDS011;68814;50.872;5.306;2023-07-02T02:08:34;44.58;;;18.27;;
63434;SDS011;68814;50.872;5.306;2023-07-02T02:11:00;42.25;;;18.08;;
63434;SDS011;68814;50.872;5.306;2023-07-02T02:13:26;39.08;;;18.83;;
63434;SDS011;68814;50.872;5.306;2023-07-02T02:15:51;40.25;;;18.55;;
63434;SDS011;68814;50.872;5.306;2023-07-02T02:18:19;41.65;;;19.45;;
63434;SDS011;68814;50.872;5.306;2023-07-02T02:20:45;46.17;;;19.25;;
63434;SDS011;68814;50.872;5.306;2023-07-02T02:23:10;40.65;;;19.65;;
63434;SDS011;68814;50.872;5.306;2023-07-02T02:25:36;47.72;;;19.58;;
63434;SDS011;68814;50.872;5.306;2023-07-02T02:28:01;41.83;;;20.52;;
63434;SDS011;68814;50.872;5.306;2023-07-02T02:30:27;43.15;;;18.90;;
63434;SDS011;68814;50.872;5.306;2023-07-02T02:32:53;47.78;;;20.05;;
63434;SDS011;68814;50.872;5.306;2023-07-02T02:35:18;44.90;;;19.55;;
63434;SDS011;68814;50.872;5.306;2023-07-02T02:37:44;47.25;;;19.00;;
63434;SDS011;68814;50.872;5.306;2023-07-02T02:40:10;46.35;;;21.30;;
63434;SDS011;68814;50.872;5.306;2023-07-02T02:42:36;42.38;;;19.27;;
63434;SDS011;68814;50.872;5.306;2023-07-02T02:45:02;39.67;;;19.80;;
63434;SDS011;68814;50.872;5.306;2023-07-02T02:47:28;43.53;;;20.23;;
63434;SDS011;68814;50.872;5.306;2023-07-02T02:49:53;44.22;;;21.60;;
63434;SDS011;68814;50.872;5.306;2023-07-02T02:52:19;43.90;;;20.10;;
63434;SDS011;68814;50.872;5.306;2023-07-02T02:54:45;49.40;;;21.15;;
63434;SDS011;68814;50.872;5.306;2023-07-02T02:57:11;44.88;;;19.30;;
63434;SDS011;68814;50.872;5.306;2023-07-02T02:59:36;50.45;;;22.52;;
63434;SDS011;68814;50.872;5.306;2023-07-02T03:02:02;43.97;;;21.02;;
63434;SDS011;68814;50.872;5.306;2023-07-02T03:04:29;48.88;;;22.52;;
63434;SDS011;68814;50.872;5.306;2023-07-02T03:06:54;47.85;;;20.45;;
63434;SDS011;68814;50.872;5.306;2023-07-02T03:09:21;50.53;;;22.58;;
63434;SDS011;68814;50.872;5.306;2023-07-02T03:11:46;43.42;;;21.92;;
63434;SDS011;68814;50.872;5.306;2023-07-02T03:14:12;79.00;;;23.30;;
63434;SDS011;68814;50.872;5.306;2023-07-02T03:16:39;51.22;;;21.85;;
63434;SDS011;68814;50.872;5.306;2023-07-02T03:19:04;46.63;;;21.98;;
63434;SDS011;68814;50.872;5.306;2023-07-02T03:21:30;50.13;;;22.45;;
63434;SDS011;68814;50.872;5.306;2023-07-02T03:23:57;51.38;;;23.38;;
63434;SDS011;68814;50.872;5.306;2023-07-02T03:26:22;54.90;;;22.35;;
63434;SDS011;68814;50.872;5.306;2023-07-02T03:28:49;54.15;;;22.13;;
63434;SDS011;68814;50.872;5.306;2023-07-02T03:31:14;60.40;;;24.55;;
63434;SDS011;68814;50.872;5.306;2023-07-02T03:33:40;51.83;;;22.60;;
63434;SDS011;68814;50.872;5.306;2023-07-02T03:36:05;50.80;;;22.65;;
63434;SDS011;68814;50.872;5.306;2023-07-02T03:38:31;55.10;;;23.42;;
63434;SDS011;68814;50.872;5.306;2023-07-02T03:40:57;50.22;;;22.65;;
63434;SDS011;68814;50.872;5.306;2023-07-02T03:43:23;45.80;;;22.70;;
63434;SDS011;68814;50.872;5.306;2023-07-02T03:45:51;50.22;;;22.20;;
63434;SDS011;68814;50.872;5.306;2023-07-02T03:48:17;51.25;;;23.02;;
63434;SDS011;68814;50.872;5.306;2023-07-02T03:50:42;56.05;;;24.38;;
63434;SDS011;68814;50.872;5.306;2023-07-02T03:53:08;55.58;;;23.85;;
63434;SDS011;68814;50.872;5.306;2023-07-02T03:55:34;51.05;;;22.38;;
63434;SDS011;68814;50.872;5.306;2023-07-02T03:58:00;58.42;;;23.73;;
63434;SDS011;68814;50.872;5.306;2023-07-02T04:00:25;60.88;;;23.92;;
63434;SDS011;68814;50.872;5.306;2023-07-02T04:02:51;52.97;;;23.50;;
63434;SDS011;68814;50.872;5.306;2023-07-02T04:05:16;61.30;;;24.67;;
63434;SDS011;68814;50.872;5.306;2023-07-02T04:07:42;62.05;;;23.92;;
63434;SDS011;68814;50.872;5.306;2023-07-02T04:10:08;55.22;;;25.90;;
63434;SDS011;68814;50.872;5.306;2023-07-02T04:12:33;54.22;;;23.13;;
63434;SDS011;68814;50.872;5.306;2023-07-02T04:14:59;54.88;;;23.52;;
63434;SDS011;68814;50.872;5.306;2023-07-02T04:17:25;59.20;;;24.85;;
63434;SDS011;68814;50.872;5.306;2023-07-02T04:19:53;53.67;;;25.30;;
63434;SDS011;68814;50.872;5.306;2023-07-02T04:22:19;57.78;;;25.05;;
63434;SDS011;68814;50.872;5.306;2023-07-02T04:24:45;62.00;;;25.02;;
63434;SDS011;68814;50.872;5.306;2023-07-02T04:27:13;55.75;;;24.45;;
63434;SDS011;68814;50.872;5.306;2023-07-02T04:29:42;59.28;;;24.42;;
63434;SDS011;68814;50.872;5.306;2023-07-02T04:32:10;58.40;;;25.50;;
63434;SDS011;68814;50.872;5.306;2023-07-02T04:34:36;64.97;;;26.42;;
63434;SDS011;68814;50.872;5.306;2023-07-02T04:37:03;68.00;;;26.45;;
63434;SDS011;68814;50.872;5.306;2023-07-02T04:39:29;57.95;;;25.70;;
63434;SDS011;68814;50.872;5.306;2023-07-02T04:41:54;55.58;;;25.35;;
63434;SDS011;68814;50.872;5.306;2023-07-02T04:44:20;54.97;;;25.65;;
63434;SDS011;68814;50.872;5.306;2023-07-02T04:46:47;61.20;;;25.02;;
63434;SDS011;68814;50.872;5.306;2023-07-02T04:49:13;68.20;;;27.30;;
63434;SDS011;68814;50.872;5.306;2023-07-02T04:51:39;62.28;;;26.88;;
63434;SDS011;68814;50.872;5.306;2023-07-02T04:54:05;68.10;;;27.05;;
63434;SDS011;68814;50.872;5.306;2023-07-02T04:56:30;57.83;;;25.25;;
63434;SDS011;68814;50.872;5.306;2023-07-02T04:58:56;61.72;;;26.77;;
63434;SDS011;68814;50.872;5.306;2023-07-02T05:01:22;68.35;;;27.80;;
63434;SDS011;68814;50.872;5.306;2023-07-02T05:03:47;65.82;;;28.17;;
63434;SDS011;68814;50.872;5.306;2023-07-02T05:06:13;68.28;;;28.10;;
63434;SDS011;68814;50.872;5.306;2023-07-02T05:08:39;59.47;;;27.17;;
63434;SDS011;68814;50.872;5.306;2023-07-02T05:11:04;66.53;;;27.95;;
63434;SDS011;68814;50.872;5.306;2023-07-02T05:13:30;60.45;;;27.75;;
63434;SDS011;68814;50.872;5.306;2023-07-02T05:15:55;69.90;;;27.63;;
63434;SDS011;68814;50.872;5.306;2023-07-02T05:18:21;60.20;;;25.58;;
63434;SDS011;68814;50.872;5.306;2023-07-02T05:20:47;57.53;;;27.00;;
63434;SDS011;68814;50.872;5.306;2023-07-02T05:23:12;72.22;;;27.85;;
63434;SDS011;68814;50.872;5.306;2023-07-02T05:25:38;67.65;;;28.13;;
63434;SDS011;68814;50.872;5.306;2023-07-02T05:28:04;60.75;;;26.05;;
63434;SDS011;68814;50.872;5.306;2023-07-02T05:30:29;67.32;;;27.77;;
63434;SDS011;68814;50.872;5.306;2023-07-02T05:32:55;60.40;;;26.83;;
63434;SDS011;68814;50.872;5.306;2023-07-02T05:35:20;68.15;;;26.58;;
63434;SDS011;68814;50.872;5.306;2023-07-02T05:37:46;70.63;;;28.80;;
63434;SDS011;68814;50.872;5.306;2023-07-02T05:40:12;75.72;;;28.15;;
63434;SDS011;68814;50.872;5.306;2023-07-02T05:42:37;66.93;;;28.38;;
63434;SDS011;68814;50.872;5.306;2023-07-02T05:45:03;69.68;;;30.17;;
63434;SDS011;68814;50.872;5.306;2023-07-02T05:47:29;67.25;;;26.92;;
63434;SDS011;68814;50.872;5.306;2023-07-02T05:49:54;64.30;;;29.10;;
63434;SDS011;68814;50.872;5.306;2023-07-02T05:52:20;64.82;;;28.73;;
63434;SDS011;68814;50.872;5.306;2023-07-02T05:54:47;77.22;;;29.50;;
63434;SDS011;68814;50.872;5.306;2023-07-02T05:57:13;57.65;;;27.27;;
63434;SDS011;68814;50.872;5.306;2023-07-02T05:59:38;64.45;;;29.58;;
63434;SDS011;68814;50.872;5.306;2023-07-02T06:02:04;63.40;;;28.10;;
63434;SDS011;68814;50.872;5.306;2023-07-02T06:04:30;61.38;;;27.95;;
63434;SDS011;68814;50.872;5.306;2023-07-02T06:06:55;70.95;;;28.77;;
63434;SDS011;68814;50.872;5.306;2023-07-02T06:09:22;71.03;;;28.52;;
63434;SDS011;68814;50.872;5.306;2023-07-02T06:11:48;63.70;;;27.48;;
63434;SDS011;68814;50.872;5.306;2023-07-02T06:14:13;69.57;;;30.70;;
63434;SDS011;68814;50.872;5.306;2023-07-02T06:16:39;74.00;;;28.73;;
63434;SDS011;68814;50.872;5.306;2023-07-02T06:19:05;65.30;;;28.98;;
63434;SDS011;68814;50.872;5.306;2023-07-02T06:21:31;65.68;;;27.80;;
63434;SDS011;68814;50.872;5.306;2023-07-02T06:23:56;59.88;;;27.90;;
63434;SDS011;68814;50.872;5.306;2023-07-02T06:26:24;72.72;;;30.75;;
63434;SDS011;68814;50.872;5.306;2023-07-02T06:28:50;66.35;;;30.15;;
63434;SDS011;68814;50.872;5.306;2023-07-02T06:31:16;72.30;;;30.95;;
63434;SDS011;68814;50.872;5.306;2023-07-02T06:33:41;74.57;;;31.13;;
63434;SDS011;68814;50.872;5.306;2023-07-02T06:36:07;69.85;;;29.80;;
63434;SDS011;68814;50.872;5.306;2023-07-02T06:38:33;75.05;;;30.10;;
63434;SDS011;68814;50.872;5.306;2023-07-02T06:40:58;75.05;;;30.00;;
63434;SDS011;68814;50.872;5.306;2023-07-02T06:43:24;65.53;;;29.35;;
63434;SDS011;68814;50.872;5.306;2023-07-02T06:45:50;72.00;;;31.23;;
63434;SDS011;68814;50.872;5.306;2023-07-02T06:48:15;67.15;;;29.85;;
63434;SDS011;68814;50.872;5.306;2023-07-02T06:50:43;70.82;;;30.80;;
63434;SDS011;68814;50.872;5.306;2023-07-02T06:53:10;62.17;;;29.35;;
63434;SDS011;68814;50.872;5.306;2023-07-02T06:55:36;69.38;;;28.35;;
63434;SDS011;68814;50.872;5.306;2023-07-02T06:58:01;65.28;;;29.38;;
63434;SDS011;68814;50.872;5.306;2023-07-02T07:00:27;66.82;;;30.40;;
63434;SDS011;68814;50.872;5.306;2023-07-02T07:02:52;72.65;;;28.58;;
63434;SDS011;68814;50.872;5.306;2023-07-02T07:05:18;68.95;;;29.27;;
63434;SDS011;68814;50.872;5.306;2023-07-02T07:07:43;64.32;;;27.08;;
63434;SDS011;68814;50.872;5.306;2023-07-02T07:10:09;61.08;;;28.48;;
63434;SDS011;68814;50.872;5.306;2023-07-02T07:12:35;63.70;;;27.85;;
63434;SDS011;68814;50.872;5.306;2023-07-02T07:15:01;62.83;;;27.08;;
63434;SDS011;68814;50.872;5.306;2023-07-02T07:17:27;63.88;;;27.50;;
63434;SDS011;68814;50.872;5.306;2023-07-02T07:19:53;69.00;;;29.00;;
63434;SDS011;68814;50.872;5.306;2023-07-02T07:22:18;60.88;;;28.27;;
63434;SDS011;68814;50.872;5.306;2023-07-02T07:24:44;58.17;;;26.63;;
63434;SDS011;68814;50.872;5.306;2023-07-02T07:27:09;60.22;;;26.88;;
63434;SDS011;68814;50.872;5.306;2023-07-02T07:29:35;62.50;;;27.65;;
63434;SDS011;68814;50.872;5.306;2023-07-02T07:32:02;65.07;;;28.63;;
63434;SDS011;68814;50.872;5.306;2023-07-02T07:34:27;62.65;;;27.73;;
63434;SDS011;68814;50.872;5.306;2023-07-02T07:36:53;54.25;;;25.77;;
63434;SDS011;68814;50.872;5.306;2023-07-02T07:39:18;57.97;;;25.98;;
63434;SDS011;68814;50.872;5.306;2023-07-02T07:41:47;58.38;;;26.98;;
63434;SDS011;68814;50.872;5.306;2023-07-02T07:44:15;58.42;;;27.65;;
63434;SDS011;68814;50.872;5.306;2023-07-02T07:46:41;58.30;;;25.60;;
63434;SDS011;68814;50.872;5.306;2023-07-02T07:49:07;60.58;;;26.10;;
63434;SDS011;68814;50.872;5.306;2023-07-02T07:51:32;56.75;;;26.15;;
63434;SDS011;68814;50.872;5.306;2023-07-02T07:54:00;54.28;;;25.20;;
63434;SDS011;68814;50.872;5.306;2023-07-02T07:56:26;56.05;;;25.92;;
63434;SDS011;68814;50.872;5.306;2023-07-02T07:58:52;58.80;;;27.23;;
63434;SDS011;68814;50.872;5.306;2023-07-02T08:01:17;58.22;;;26.00;;
63434;SDS011;68814;50.872;5.306;2023-07-02T08:03:43;55.25;;;26.05;;
63434;SDS011;68814;50.872;5.306;2023-07-02T08:06:09;48.20;;;23.30;;
63434;SDS011;68814;50.872;5.306;2023-07-02T08:08:34;55.15;;;26.50;;
63434;SDS011;68814;50.872;5.306;2023-07-02T08:11:00;57.47;;;25.92;;
63434;SDS011;68814;50.872;5.306;2023-07-02T08:13:25;54.30;;;26.80;;
63434;SDS011;68814;50.872;5.306;2023-07-02T08:15:51;52.20;;;25.42;;
63434;SDS011;68814;50.872;5.306;2023-07-02T08:18:16;50.92;;;24.42;;
63434;SDS011;68814;50.872;5.306;2023-07-02T08:20:42;46.90;;;20.20;;
63434;SDS011;68814;50.872;5.306;2023-07-02T08:23:07;43.00;;;19.98;;
63434;SDS011;68814;50.872;5.306;2023-07-02T08:25:33;42.33;;;19.38;;
63434;SDS011;68814;50.872;5.306;2023-07-02T08:27:59;40.92;;;19.00;;
63434;SDS011;68814;50.872;5.306;2023-07-02T08:30:24;48.10;;;21.08;;
63434;SDS011;68814;50.872;5.306;2023-07-02T08:32:50;47.90;;;19.92;;
63434;SDS011;68814;50.872;5.306;2023-07-02T08:35:15;36.63;;;17.27;;
63434;SDS011;68814;50.872;5.306;2023-07-02T08:37:41;44.55;;;20.15;;
63434;SDS011;68814;50.872;5.306;2023-07-02T08:40:15;40.30;;;18.25;;
63434;SDS011;68814;50.872;5.306;2023-07-02T08:42:47;42.85;;;19.42;;
63434;SDS011;68814;50.872;5.306;2023-07-02T08:45:13;42.40;;;18.10;;
63434;SDS011;68814;50.872;5.306;2023-07-02T08:47:41;43.60;;;18.58;;
63434;SDS011;68814;50.872;5.306;2023-07-02T08:50:06;40.67;;;18.13;;
63434;SDS011;68814;50.872;5.306;2023-07-02T08:52:32;40.90;;;18.10;;
63434;SDS011;68814;50.872;5.306;2023-07-02T08:54:58;37.95;;;17.63;;
63434;SDS011;68814;50.872;5.306;2023-07-02T08:57:24;40.72;;;17.55;;
63434;SDS011;68814;50.872;5.306;2023-07-02T08:59:49;40.28;;;17.05;;
63434;SDS011;68814;50.872;5.306;2023-07-02T09:02:16;40.38;;;18.23;;
63434;SDS011;68814;50.872;5.306;2023-07-02T09:04:43;35.47;;;16.17;;
63434;SDS011;68814;50.872;5.306;2023-07-02T09:07:09;36.63;;;16.35;;
63434;SDS011;68814;50.872;5.306;2023-07-02T09:09:43;35.35;;;15.57;;
63434;SDS011;68814;50.872;5.306;2023-07-02T09:12:28;42.72;;;16.23;;
63434;SDS011;68814;50.872;5.306;2023-07-02T09:14:58;31.33;;;14.23;;
63434;SDS011;68814;50.872;5.306;2023-07-02T09:17:32;31.27;;;13.15;;
63434;SDS011;68814;50.872;5.306;2023-07-02T09:19:59;27.00;;;12.45;;
63434;SDS011;68814;50.872;5.306;2023-07-02T09:22:26;36.08;;;12.63;;
63434;SDS011;68814;50.872;5.306;2023-07-02T09:24:52;27.95;;;12.10;;
63434;SDS011;68814;50.872;5.306;2023-07-02T09:27:19;27.85;;;11.35;;
63434;SDS011;68814;50.872;5.306;2023-07-02T09:29:49;27.10;;;11.65;;
63434;SDS011;68814;50.872;5.306;2023-07-02T09:32:25;24.30;;;10.68;;
63434;SDS011;68814;50.872;5.306;2023-07-02T09:34:54;29.13;;;11.43;;
63434;SDS011;68814;50.872;5.306;2023-07-02T09:37:22;24.38;;;11.23;;
63434;SDS011;68814;50.872;5.306;2023-07-02T09:39:49;25.05;;;10.40;;
63434;SDS011;68814;50.872;5.306;2023-07-02T09:42:17;23.60;;;11.07;;
63434;SDS011;68814;50.872;5.306;2023-07-02T09:44:44;29.98;;;10.40;;
63434;SDS011;68814;50.872;5.306;2023-07-02T09:47:11;22.20;;;10.05;;
63434;SDS011;68814;50.872;5.306;2023-07-02T09:49:48;29.50;;;10.40;;
63434;SDS011;68814;50.872;5.306;2023-07-02T09:52:17;24.50;;;9.77;;
63434;SDS011;68814;50.872;5.306;2023-07-02T09:54:44;26.08;;;10.32;;
63434;SDS011;68814;50.872;5.306;2023-07-02T09:57:10;21.63;;;9.88;;
63434;SDS011;68814;50.872;5.306;2023-07-02T09:59:35;20.40;;;9.60;;
63434;SDS011;68814;50.872;5.306;2023-07-02T10:02:02;23.25;;;9.32;;
63434;SDS011;68814;50.872;5.306;2023-07-02T10:04:38;23.00;;;10.23;;
63434;SDS011;68814;50.872;5.306;2023-07-02T10:07:26;26.92;;;9.85;;
63434;SDS011;68814;50.872;5.306;2023-07-02T10:09:53;23.70;;;9.95;;
63434;SDS011;68814;50.872;5.306;2023-07-02T10:12:20;19.70;;;9.10;;
63434;SDS011;68814;50.872;5.306;2023-07-02T10:14:47;28.63;;;10.93;;
63434;SDS011;68814;50.872;5.306;2023-07-02T10:17:30;27.45;;;10.32;;
63434;SDS011;68814;50.872;5.306;2023-07-02T10:20:04;24.95;;;9.85;;
63434;SDS011;68814;50.872;5.306;2023-07-02T10:22:43;18.20;;;9.57;;
63434;SDS011;68814;50.872;5.306;2023-07-02T10:25:23;25.10;;;11.25;;
63434;SDS011;68814;50.872;5.306;2023-07-02T10:27:55;24.08;;;11.85;;
63434;SDS011;68814;50.872;5.306;2023-07-02T10:30:33;26.00;;;11.88;;
63434;SDS011;68814;50.872;5.306;2023-07-02T10:33:16;26.33;;;11.77;;
63434;SDS011;68814;50.872;5.306;2023-07-02T10:35:43;27.48;;;11.80;;
63434;SDS011;68814;50.872;5.306;2023-07-02T10:38:15;26.55;;;12.27;;
63434;SDS011;68814;50.872;5.306;2023-07-02T10:40:53;31.48;;;11.88;;
63434;SDS011;68814;50.872;5.306;2023-07-02T10:43:24;27.30;;;11.82;;
63434;SDS011;68814;50.872;5.306;2023-07-02T10:45:57;27.58;;;11.27;;
63434;SDS011;68814;50.872;5.306;2023-07-02T10:48:24;24.13;;;11.13;;
63434;SDS011;68814;50.872;5.306;2023-07-02T10:50:50;25.30;;;11.35;;
63434;SDS011;68814;50.872;5.306;2023-07-02T10:53:16;27.55;;;11.27;;
63434;SDS011;68814;50.872;5.306;2023-07-02T10:55:43;27.88;;;11.77;;
63434;SDS011;68814;50.872;5.306;2023-07-02T10:58:09;24.15;;;11.35;;
63434;SDS011;68814;50.872;5.306;2023-07-02T11:00:49;28.85;;;12.02;;
63434;SDS011;68814;50.872;5.306;2023-07-02T11:03:19;28.70;;;11.18;;
63434;SDS011;68814;50.872;5.306;2023-07-02T11:05:49;29.48;;;12.25;;
63434;SDS011;68814;50.872;5.306;2023-07-02T11:08:15;28.55;;;12.15;;
63434;SDS011;68814;50.872;5.306;2023-07-02T11:10:41;34.67;;;12.13;;
63434;SDS011;68814;50.872;5.306;2023-07-02T11:13:16;24.98;;;11.70;;
63434;SDS011;68814;50.872;5.306;2023-07-02T11:15:43;31.10;;;12.32;;
63434;SDS011;68814;50.872;5.306;2023-07-02T11:18:16;29.25;;;13.05;;
63434;SDS011;68814;50.872;5.306;2023-07-02T11:20:44;30.45;;;12.65;;
63434;SDS011;68814;50.872;5.306;2023-07-02T11:23:17;29.35;;;13.23;;
63434;SDS011;68814;50.872;5.306;2023-07-02T11:28:25;25.20;;;13.15;;
63434;SDS011;68814;50.872;5.306;2023-07-02T11:30:51;30.60;;;12.85;;
63434;SDS011;68814;50.872;5.306;2023-07-02T11:33:17;31.20;;;13.02;;
63434;SDS011;68814;50.872;5.306;2023-07-02T11:35:43;27.65;;;12.95;;
63434;SDS011;68814;50.872;5.306;2023-07-02T11:38:09;25.48;;;12.00;;
63434;SDS011;68814;50.872;5.306;2023-07-02T11:40:38;26.50;;;11.18;;
63434;SDS011;68814;50.872;5.306;2023-07-02T11:43:05;25.65;;;11.18;;
63434;SDS011;68814;50.872;5.306;2023-07-02T11:45:31;26.08;;;11.70;;
63434;SDS011;68814;50.872;5.306;2023-07-02T11:47:57;27.23;;;12.52;;
63434;SDS011;68814;50.872;5.306;2023-07-02T11:50:22;24.45;;;11.85;;
63434;SDS011;68814;50.872;5.306;2023-07-02T11:52:48;31.05;;;13.27;;
63434;SDS011;68814;50.872;5.306;2023-07-02T11:55:14;32.10;;;12.90;;
63434;SDS011;68814;50.872;5.306;2023-07-02T11:57:39;26.75;;;12.30;;
63434;SDS011;68814;50.872;5.306;2023-07-02T12:00:05;30.08;;;12.70;;
63434;SDS011;68814;50.872;5.306;2023-07-02T12:02:31;24.60;;;11.85;;
63434;SDS011;68814;50.872;5.306;2023-07-02T12:04:57;25.55;;;12.07;;
63434;SDS011;68814;50.872;5.306;2023-07-02T12:07:22;24.45;;;11.05;;
63434;SDS011;68814;50.872;5.306;2023-07-02T12:09:50;21.60;;;10.10;;
63434;SDS011;68814;50.872;5.306;2023-07-02T12:12:15;27.58;;;11.05;;
63434;SDS011;68814;50.872;5.306;2023-07-02T12:14:41;27.88;;;11.55;;
63434;SDS011;68814;50.872;5.306;2023-07-02T12:17:08;24.00;;;10.80;;
63434;SDS011;68814;50.872;5.306;2023-07-02T12:19:37;27.90;;;11.52;;
63434;SDS011;68814;50.872;5.306;2023-07-02T12:22:06;26.25;;;10.63;;
63434;SDS011;68814;50.872;5.306;2023-07-02T12:24:32;27.95;;;11.98;;
63434;SDS011;68814;50.872;5.306;2023-07-02T12:26:57;32.63;;;11.88;;
63434;SDS011;68814;50.872;5.306;2023-07-02T12:29:23;31.92;;;13.18;;
63434;SDS011;68814;50.872;5.306;2023-07-02T12:31:49;27.27;;;11.82;;
63434;SDS011;68814;50.872;5.306;2023-07-02T12:34:14;27.83;;;11.90;;
63434;SDS011;68814;50.872;5.306;2023-07-02T12:36:40;23.60;;;11.07;;
63434;SDS011;68814;50.872;5.306;2023-07-02T12:39:06;20.90;;;10.80;;
63434;SDS011;68814;50.872;5.306;2023-07-02T12:41:32;29.00;;;12.38;;
63434;SDS011;68814;50.872;5.306;2023-07-02T12:43:58;25.23;;;11.48;;
63434;SDS011;68814;50.872;5.306;2023-07-02T12:46:24;25.45;;;10.63;;
63434;SDS011;68814;50.872;5.306;2023-07-02T12:48:50;22.95;;;11.00;;
63434;SDS011;68814;50.872;5.306;2023-07-02T12:51:16;22.30;;;11.32;;
63434;SDS011;68814;50.872;5.306;2023-07-02T12:53:41;22.38;;;10.52;;
63434;SDS011;68814;50.872;5.306;2023-07-02T12:56:07;25.25;;;11.68;;
63434;SDS011;68814;50.872;5.306;2023-07-02T12:58:32;25.23;;;10.27;;
63434;SDS011;68814;50.872;5.306;2023-07-02T13:00:58;25.63;;;11.63;;
63434;SDS011;68814;50.872;5.306;2023-07-02T13:03:24;24.63;;;10.00;;
63434;SDS011;68814;50.872;5.306;2023-07-02T13:05:50;29.75;;;11.38;;
63434;SDS011;68814;50.872;5.306;2023-07-02T13:08:15;24.27;;;11.57;;
63434;SDS011;68814;50.872;5.306;2023-07-02T13:10:41;27.15;;;11.52;;
63434;SDS011;68814;50.872;5.306;2023-07-02T13:13:07;25.13;;;10.82;;
63434;SDS011;68814;50.872;5.306;2023-07-02T13:15:33;29.05;;;10.30;;
63434;SDS011;68814;50.872;5.306;2023-07-02T13:18:00;25.25;;;11.50;;
63434;SDS011;68814;50.872;5.306;2023-07-02T13:20:26;23.02;;;10.63;;
63434;SDS011;68814;50.872;5.306;2023-07-02T13:22:51;25.77;;;11.65;;
63434;SDS011;68814;50.872;5.306;2023-07-02T13:25:17;24.63;;;11.13;;
63434;SDS011;68814;50.872;5.306;2023-07-02T13:27:43;25.42;;;11.13;;
63434;SDS011;68814;50.872;5.306;2023-07-02T13:30:08;20.58;;;10.65;;
63434;SDS011;68814;50.872;5.306;2023-07-02T13:32:34;25.08;;;10.75;;
63434;SDS011;68814;50.872;5.306;2023-07-02T13:35:00;26.65;;;11.38;;
63434;SDS011;68814;50.872;5.306;2023-07-02T13:37:25;22.65;;;10.30;;
63434;SDS011;68814;50.872;5.306;2023-07-02T13:39:51;22.33;;;9.98;;
63434;SDS011;68814;50.872;5.306;2023-07-02T13:42:16;25.00;;;10.07;;
63434;SDS011;68814;50.872;5.306;2023-07-02T13:44:42;18.88;;;9.93;;
63434;SDS011;68814;50.872;5.306;2023-07-02T13:47:08;22.25;;;10.68;;
63434;SDS011;68814;50.872;5.306;2023-07-02T13:49:34;22.02;;;10.45;;
63434;SDS011;68814;50.872;5.306;2023-07-02T13:52:00;25.77;;;11.65;;
63434;SDS011;68814;50.872;5.306;2023-07-02T13:54:26;25.48;;;11.43;;
63434;SDS011;68814;50.872;5.306;2023-07-02T13:56:52;20.95;;;10.23;;
63434;SDS011;68814;50.872;5.306;2023-07-02T13:59:18;22.50;;;11.10;;
63434;SDS011;68814;50.872;5.306;2023-07-02T14:01:45;22.65;;;10.15;;
63434;SDS011;68814;50.872;5.306;2023-07-02T14:04:12;22.92;;;10.75;;
63434;SDS011;68814;50.872;5.306;2023-07-02T14:06:38;25.95;;;10.10;;
63434;SDS011;68814;50.872;5.306;2023-07-02T14:09:04;26.27;;;11.15;;
63434;SDS011;68814;50.872;5.306;2023-07-02T14:11:31;32.00;;;11.40;;
63434;SDS011;68814;50.872;5.306;2023-07-02T14:13:57;27.88;;;11.00;;
63434;SDS011;68814;50.872;5.306;2023-07-02T14:16:22;23.40;;;10.10;;
63434;SDS011;68814;50.872;5.306;2023-07-02T14:18:49;25.00;;;10.18;;
63434;SDS011;68814;50.872;5.306;2023-07-02T14:21:15;23.95;;;9.93;;
63434;SDS011;68814;50.872;5.306;2023-07-02T14:23:40;22.15;;;10.32;;